Etusivu
METAR-TAF:

METAR-TAF

Lentoasemat :

Cape Dorsetin lentoasema

Cape Dorset, Nunavut, Kanada

Leveyspiiri: 64-13N, Pituuspiiri: 076-32W, korkeus merenpinnasta: 51 m

Tämänhetkinen sää

Tämä raportti tehtiin 18 minuuttia sitten, kello 11.00 UTC
Tuuli 6 kn lännestä
Lämpötila -26°C
Kosteus 76%
Ilmanpaine 1027 hPa
Näkyvyys: 14.5 km
selkeää

METAR: CYTE 261100Z AUTO 27006KT 9SM CLR M26/M29 A3032 RMK SLP276

Aika: 06:18 (11:18 UTC)

Sääennuste

Tämä raportti tehtiin 4 tuntia ja 40 minuuttia sitten, kello 06.38 UTC
Ennuste voimassa 26. päivästä klo 07 UTC - 26. päivään klo 19 UTC
Tuuli 12 kn lännestä
Näkyvyys: 10 km
Hajanaisia pilviä 2000 ft:n korkeudessa
Ajoittain
26. päivästä klo 07 UTC - 26. päivään klo 19 UTC
Näkyvyys: 8.0 km
Hajonneita pilviä 2000 ft:n korkeudessa
jääkiteitä

TAF: CYTE 260638Z 2607/2619 28012KT P6SM SCT020 TEMPO 2607/2619 5SM IC BKN020 RMK FCST BASED ON AUTO OBS. NXT FCST BY 261300Z

Säähavainnot ja -ennusteet yli 4000 lentoasemalta (METAR- ja TAF-raportit).

Käytössä olevat sääasemat on merkitty karttaan keltaisilla ja punaisilla pisteillä.

Aseta hiiri pisteen päälle nähdäksesi sääaseman nimen.

Klikkaa sitten nähdäksesi säähavainnot ja -ennusteet.

Kartan vaihtaminen: klikkaa mustalla rastilla varustettuja vihreitä pisteitä, niin voit zoomata sisään; viivalla varustettua vihreää pistettä, niin voit zoomata ulos tai vihreitä nuolia, niin pääset viereisille kartoille.


METAR-TAF: